• Join FlightAware (Why Join?)
  • Login
  • US Flag 
Trick or treat! (Boo!!) 
03:19AM EDT


 

Airport Tracker/Info


-or-


 

Live Flight TrackerFlight Track Log ✈ EJA396 ✈ 07-May-2014 ✈ KMKC - KFAR

Flight Track Log - Related Links

Times and Time Zones

All times are in EDT time to prevent confusion due to time zone crossing. See the EJA396 flight status page for this flight to view local times or setup timezone preferences in your user account.

Time Position Orientation Groundspeed Altitude Reporting Facility
EDT Latitude Longitude Course Direction KTS MPH feet Rate Location/Type
11:46AM 39.1167 -94.6000 237° Southwest 159 183 1,400  Level Kansas City TRACON
11:46AM 39.1000 -94.6333 237° Southwest 181 208 3,300 2,100 Climbing Kansas City TRACON
11:48AM 39.0833 -94.6986 252° West 193 222 5,200 2,100 Climbing Kansas City Center
11:49AM 39.1106 -94.7672 297° West 255 293 7,900 3,180 Climbing Kansas City Center
11:50AM 39.1981 -94.7761 355° North 316 364 11,800 3,360 Climbing Kansas City Center
11:51AM 39.2950 -94.7922 353° North 352 405 14,800 2,820 Climbing Kansas City Center
11:52AM 39.4011 -94.8133 351° North 384 442 17,700 3,240 Climbing Kansas City Center
11:53AM 39.5325 -94.8394 351° North 398 458 21,500 3,180 Climbing Kansas City Center
11:54AM 39.6450 -94.8619 351° North 408 470 24,300 2,640 Climbing Kansas City Center
11:55AM 39.7594 -94.8844 351° North 415 478 27,100 2,640 Climbing Kansas City Center
11:56AM 39.8728 -94.9069 351° North 416 479 29,800 2,160 Climbing Kansas City Center
11:57AM 39.9847 -94.9392 348° North 415 478 31,600 1,080 Climbing Kansas City Center
11:58AM 40.1156 -95.0278 333° Northwest 443 510 32,000 180 Climbing Kansas City Center
11:59AM 40.2294 -95.1028 333° Northwest 455 524 32,000  Level Kansas City Center
12:00PM 40.3400 -95.1772 333° Northwest 455 524 32,000 480 Level Kansas City Center
12:01PM 40.4486 -95.2511 333° Northwest 447 514 33,000 480 Climbing Kansas City Center
12:02PM 40.5889 -95.3431 334° Northwest 440 506 33,100 420 Climbing Minneapolis Center
12:03PM 40.6989 -95.4169 333° Northwest 440 506 34,000 420 Climbing Minneapolis Center
12:04PM 40.8089 -95.4931 332° Northwest 442 509 34,000  Level Minneapolis Center
12:05PM 40.9192 -95.5678 333° Northwest 443 510 34,000  Level Minneapolis Center
12:06PM 41.0500 -95.6575 333° Northwest 443 510 34,000  Level Minneapolis Center
12:07PM 41.1458 -95.7225 333° Northwest 443 510 34,000  Level Minneapolis Center
12:08PM 41.2889 -95.7847 342° North 446 513 34,000  Level Minneapolis Center
12:09PM 41.4069 -95.8344 342° North 447 514 34,000  Level Minneapolis Center
12:10PM 41.5267 -95.8831 343° North 447 514 34,000  Level Minneapolis Center
12:11PM 41.6522 -95.9336 343° North 447 514 34,000  Level Minneapolis Center
12:13PM 41.7703 -95.9825 343° North 448 516 34,000  Level Minneapolis Center
12:14PM 41.8822 -96.0286 343° North 428 493 34,000  Level Minneapolis Center
12:15PM 41.9961 -96.0758 343° North 427 491 34,000  Level Minneapolis Center
12:16PM 42.1150 -96.1256 343° North 443 510 34,000  Level Minneapolis Center
12:17PM 42.2367 -96.1778 342° North 454 522 34,000  Level Minneapolis Center
12:18PM 42.3811 -96.2356 344° North 454 522 34,000  Level Minneapolis Center
12:19PM 42.4994 -96.2864 342° North 449 517 34,000  Level Minneapolis Center
12:20PM 42.6150 -96.3353 343° North 441 507 34,000  Level Minneapolis Center
12:21PM 42.7344 -96.3869 342° North 423 487 34,000  Level Minneapolis Center
12:22PM 42.8472 -96.4328 343° North 423 487 34,000  Level Minneapolis Center
12:23PM 42.9636 -96.4833 342° North 433 498 34,000  Level Minneapolis Center
12:24PM 43.0831 -96.5347 343° North 445 512 34,000  Level Minneapolis Center
12:25PM 43.2036 -96.5858 343° North 449 517 34,000  Level Minneapolis Center
12:26PM 43.3253 -96.6383 343° North 454 522 34,000  Level Minneapolis Center
12:27PM 43.4469 -96.6931 342° North 456 525 34,000  Level Minneapolis Center
12:28PM 43.5947 -96.7556 343° North 458 527 34,000  Level Minneapolis Center
12:29PM 43.7250 -96.7822 352° North 474 545 34,000  Level Minneapolis Center
12:30PM 43.8633 -96.7856 359° North 493 567 34,000  Level Minneapolis Center
12:31PM 44.0025 -96.7889 359° North 497 572 34,000  Level Minneapolis Center
12:32PM 44.1403 -96.7917 359° North 496 571 34,000  Level Minneapolis Center
12:33PM 44.2781 -96.7944 359° North 493 567 34,000  Level Minneapolis Center
12:34PM 44.4158 -96.7986 359° North 492 566 34,000  Level Minneapolis Center
12:35PM 44.5531 -96.8031 359° North 492 566 34,000  Level Minneapolis Center
12:36PM 44.6900 -96.8042 360° North 492 566 34,000  Level Minneapolis Center
12:37PM 44.8531 -96.8083 359° North 490 564 34,000  Level Minneapolis Center
12:38PM 44.9878 -96.8097 360° North 489 563 34,000 -60 Level Minneapolis Center
12:39PM 45.1233 -96.8144 359° North 487 560 33,900 -780 Descending Minneapolis Center
12:40PM 45.2561 -96.8172 359° North 483 556 32,400 -1,500 Descending Minneapolis Center
12:41PM 45.3872 -96.8200 359° North 474 545 30,900 -1,500 Descending Minneapolis Center
12:42PM 45.5197 -96.8244 359° North 474 545 29,400 -1,500 Descending Minneapolis Center
12:43PM 45.6536 -96.8261 360° North 481 554 27,900 -1,620 Descending Minneapolis Center
12:44PM 45.7997 -96.8297 359° North 438 504 26,100 -1,620 Descending Minneapolis Center
12:45PM 45.9019 -96.7681 23° Northeast 409 471 24,600 -1,020 Descending Minneapolis Center
12:47PM 46.0047 -96.6911 27° Northeast 412 474 24,000 -1,020 Descending Minneapolis Center
12:48PM 46.1200 -96.6417 17° North 428 493 22,500 -1,800 Descending Minneapolis Center
12:49PM 46.2258 -96.6733 348° North 410 472 20,400 -2,280 Descending Minneapolis Center
12:50PM 46.3517 -96.7147 347° North 396 456 17,900 -2,580 Descending Minneapolis Center
12:51PM 46.4483 -96.7486 346° North 335 386 15,100 -3,000 Descending Minneapolis Center
12:52PM 46.5378 -96.7786 347° North 315 362 11,700 -2,760 Descending Minneapolis Center
12:53PM 46.6206 -96.8069 347° North 297 342 9,500 -2,160 Descending Minneapolis Center
12:54PM 46.6981 -96.8214 353° North 277 319 7,300 -2,640 Descending Minneapolis Center
12:55PM 46.7786 -96.8197 North 278 320 4,200 -2,280 Descending Minneapolis Center
12:56PM 46.8353 -96.8172 North 207 238 2,600 -1,320 Descending Minneapolis Center
12:57PM 46.8831 -96.8167 360° North 167 192 1,500 -1,080 Descending Minneapolis Center
12:59PM 46.9167 -96.8000 13° North  Level FlightAware Approximate
01:06PM 46.9207 -96.8158 13° North  Level Estimated